Time;durP1;ratioP1;P1;durP2;ratioP2;P2;SDS_P1;SDS_P2;PMS_P1;PMS_P2;Temp;Humidity;BMP_temperature;BMP_pressure;BME280_temperature;BME280_humidity;BME280_pressure;Samples;Min_cycle;Max_cycle;Signal;HPM_P1;HPM_P2
2021/12/08 00:00:44;;;;;;;14.80;7.60;;;-5.60;93.50;;;;;;2686489;53;20076;-35
2021/12/08 00:03:12;;;;;;;8.63;4.33;;;-5.70;93.80;;;;;;2682919;53;20062;-37
2021/12/08 00:05:44;;;;;;;12.23;5.83;;;-5.70;94.10;;;;;;2687757;53;20129;-36
2021/12/08 00:08:12;;;;;;;8.97;4.80;;;-5.60;94.70;;;;;;2683065;53;20530;-34
2021/12/08 00:11:03;;;;;;;4.03;2.23;;;-5.60;94.70;;;;;;2683095;53;20069;-33
2021/12/08 00:13:36;;;;;;;7.00;3.60;;;-5.60;94.90;;;;;;2687597;53;20561;-41
2021/12/08 00:16:09;;;;;;;9.50;4.57;;;-5.60;95.10;;;;;;2682715;53;20572;-36
2021/12/08 00:18:37;;;;;;;11.57;7.03;;;-5.60;95.30;;;;;;2682736;53;20184;-37
2021/12/08 00:21:07;;;;;;;9.40;4.20;;;-5.50;95.20;;;;;;2678137;53;20854;-36
2021/12/08 00:23:34;;;;;;;10.83;3.17;;;-5.40;95.10;;;;;;2682622;53;20133;-37
2021/12/08 00:26:01;;;;;;;11.53;5.10;;;-5.40;95.00;;;;;;2687710;53;20066;-35
2021/12/08 00:28:28;;;;;;;8.33;4.10;;;-5.40;95.10;;;;;;2678238;53;20066;-36
2021/12/08 00:30:58;;;;;;;12.07;6.07;;;-5.40;95.00;;;;;;2682431;53;20112;-35
2021/12/08 00:33:27;;;;;;;4.90;2.87;;;-5.40;95.10;;;;;;2687409;53;20066;-35
2021/12/08 00:35:59;;;;;;;6.37;2.60;;;-5.40;94.90;;;;;;2682693;53;20078;-35
2021/12/08 00:38:26;;;;;;;7.90;3.13;;;-5.40;95.00;;;;;;2682647;53;20106;-35
2021/12/08 00:40:53;;;;;;;12.17;3.50;;;-5.40;94.90;;;;;;2687389;53;20082;-34
2021/12/08 00:43:21;;;;;;;5.57;2.87;;;-5.50;95.00;;;;;;2687660;53;20066;-35
2021/12/08 00:45:49;;;;;;;7.97;3.63;;;-5.40;95.10;;;;;;2682856;53;20069;-34
2021/12/08 00:48:17;;;;;;;7.60;2.63;;;-5.40;95.10;;;;;;2691988;53;20130;-50
2021/12/08 00:50:44;;;;;;;8.97;3.97;;;-5.40;95.30;;;;;;2698690;53;20618;-35
2021/12/08 00:53:11;;;;;;;6.60;3.53;;;-5.40;95.30;;;;;;2699064;52;20131;-36
2021/12/08 00:55:38;;;;;;;10.17;2.83;;;-5.40;95.50;;;;;;2698816;53;20199;-35
2021/12/08 00:58:05;;;;;;;1.83;0.93;;;-5.30;95.70;;;;;;2698551;53;20140;-35
2021/12/08 01:00:39;;;;;;;5.10;2.20;;;-5.30;95.90;;;;;;2698940;52;20077;-37
2021/12/08 01:03:06;;;;;;;3.10;1.80;;;-5.30;96.00;;;;;;2698534;53;20106;-39
2021/12/08 01:05:42;;;;;;;7.13;1.70;;;-5.20;96.10;;;;;;2698852;53;20112;-39
2021/12/08 01:08:10;;;;;;;5.10;2.23;;;-5.20;96.50;;;;;;2698670;53;20533;-35
2021/12/08 01:10:37;;;;;;;6.67;2.53;;;-5.20;96.50;;;;;;2698674;53;20064;-38
2021/12/08 01:13:07;;;;;;;4.13;2.37;;;-5.20;96.40;;;;;;2698676;53;20161;-34
2021/12/08 01:15:35;;;;;;;16.50;8.23;;;-5.10;96.60;;;;;;2693807;53;20559;-37
2021/12/08 01:18:02;;;;;;;4.50;1.07;;;-5.10;96.80;;;;;;2703511;52;20066;-36
2021/12/08 01:20:29;;;;;;;11.87;4.53;;;-5.10;97.00;;;;;;2698568;53;20064;-35
2021/12/08 01:22:56;;;;;;;10.93;5.67;;;-5.10;97.20;;;;;;2698399;53;20073;-34
2021/12/08 01:25:23;;;;;;;1.60;1.20;;;-5.10;97.30;;;;;;2698808;53;20564;-39
2021/12/08 01:27:50;;;;;;;8.40;3.77;;;-5.00;97.40;;;;;;2698870;53;20126;-34
2021/12/08 01:30:17;;;;;;;5.07;2.30;;;-5.10;97.40;;;;;;2693098;53;20137;-36
2021/12/08 01:32:44;;;;;;;4.80;1.87;;;-5.10;97.60;;;;;;2693381;53;20144;-35
2021/12/08 01:35:11;;;;;;;10.00;5.13;;;-5.10;97.80;;;;;;2693182;53;20069;-34
2021/12/08 01:37:39;;;;;;;3.63;1.50;;;-5.00;98.00;;;;;;2697747;53;20120;-34
2021/12/08 01:40:10;;;;;;;5.37;2.03;;;-5.00;98.10;;;;;;2693018;53;20075;-34
2021/12/08 01:42:44;;;;;;;13.60;6.97;;;-5.00;98.30;;;;;;2693211;53;20088;-34
2021/12/08 01:47:58;;;;;;;14.03;6.50;;;-4.90;98.40;;;;;;2688056;53;20074;-35
2021/12/08 01:50:26;;;;;;;17.97;6.40;;;-4.80;98.60;;;;;;2677037;53;20549;-36
2021/12/08 01:52:53;;;;;;;14.53;6.77;;;-4.70;98.70;;;;;;2681887;53;20062;-39
2021/12/08 01:55:19;;;;;;;13.93;5.60;;;-4.60;98.80;;;;;;2672433;53;20066;-49
2021/12/08 01:57:46;;;;;;;16.07;7.30;;;-4.60;98.70;;;;;;2681879;53;20062;-34
2021/12/08 02:00:44;;;;;;;10.93;5.03;;;-4.60;98.60;;;;;;2681752;53;20297;-35
2021/12/08 02:03:11;;;;;;;7.87;2.73;;;-4.50;98.70;;;;;;2687065;53;20073;-38
2021/12/08 02:05:38;;;;;;;8.20;4.67;;;-4.60;98.70;;;;;;2687137;53;20066;-37
2021/12/08 02:08:08;;;;;;;5.67;2.33;;;-4.50;98.70;;;;;;2682313;53;20514;-39
2021/12/08 02:10:37;;;;;;;5.93;2.67;;;-4.50;98.80;;;;;;2687165;53;20066;-36
2021/12/08 02:13:05;;;;;;;3.20;1.33;;;-4.50;98.80;;;;;;2687257;53;20089;-40
2021/12/08 02:15:33;;;;;;;9.17;3.93;;;-4.50;98.90;;;;;;2691686;53;20128;-36
2021/12/08 02:18:00;;;;;;;11.73;4.30;;;-4.40;98.90;;;;;;2686923;53;20077;-35
2021/12/08 02:20:28;;;;;;;14.77;7.00;;;-4.30;99.10;;;;;;2687028;53;20073;-35
2021/12/08 02:22:55;;;;;;;13.97;6.33;;;-4.30;99.40;;;;;;2686906;53;20132;-36
2021/12/08 02:25:26;;;;;;;19.57;8.03;;;-4.20;99.20;;;;;;2687106;53;20069;-35
2021/12/08 02:27:55;;;;;;;12.77;4.13;;;-4.20;99.30;;;;;;2686940;53;20062;-36
2021/12/08 02:49:10;;;;;;;3.53;1.27;;;-3.50;99.90;;;;;;2698091;53;20389;-34
2021/12/08 02:51:37;;;;;;;11.73;6.30;;;-3.30;99.90;;;;;;2698051;53;20058;-35
2021/12/08 02:54:04;;;;;;;7.93;3.43;;;-3.40;99.90;;;;;;2688681;53;20144;-33
2021/12/08 02:56:31;;;;;;;6.37;3.27;;;-3.50;99.90;;;;;;2698117;53;20081;-38
2021/12/08 02:58:59;;;;;;;4.47;1.53;;;-3.50;99.90;;;;;;2697977;53;20061;-35
2021/12/08 03:01:26;;;;;;;3.63;2.13;;;-3.50;99.90;;;;;;2698392;53;20103;-33
2021/12/08 03:03:53;;;;;;;4.93;1.70;;;-3.40;99.90;;;;;;2693595;52;20070;-49
2021/12/08 03:06:20;;;;;;;6.43;2.57;;;-3.40;99.90;;;;;;2688680;53;20074;-31
2021/12/08 03:08:48;;;;;;;7.60;2.57;;;-3.40;99.90;;;;;;2693507;53;20077;-32
2021/12/08 03:11:15;;;;;;;2.30;0.87;;;-3.40;99.90;;;;;;2698153;53;20410;-33
2021/12/08 03:13:57;;;;;;;1.90;0.80;;;-3.20;99.90;;;;;;2697996;53;20066;-33
2021/12/08 03:16:24;;;;;;;2.57;1.63;;;-3.10;99.90;;;;;;2688564;53;20088;-31
2021/12/08 03:18:51;;;;;;;3.37;1.17;;;-3.00;99.90;;;;;;2687890;53;20539;-32
2021/12/08 03:21:18;;;;;;;3.80;1.20;;;-3.00;99.90;;;;;;2687901;53;20069;-35
2021/12/08 03:26:18;;;;;;;3.13;1.63;;;-3.10;99.90;;;;;;2692541;53;20072;-32
2021/12/08 03:28:57;;;;;;;3.53;1.73;;;-3.10;99.90;;;;;;2697449;53;20057;-31
2021/12/08 03:31:31;;;;;;;4.87;1.73;;;-3.20;99.90;;;;;;2697297;53;20089;-39
2021/12/08 03:33:58;;;;;;;1.87;1.07;;;-3.20;99.90;;;;;;2697408;53;20073;-32
2021/12/08 03:36:25;;;;;;;2.33;1.33;;;-3.10;99.90;;;;;;2688449;53;20073;-50
2021/12/08 03:38:52;;;;;;;3.90;1.13;;;-2.90;99.90;;;;;;2688767;53;20061;-31
2021/12/08 03:41:20;;;;;;;5.03;2.00;;;-3.00;99.90;;;;;;2693427;53;20081;-33
2021/12/08 03:43:47;;;;;;;4.23;1.20;;;-3.00;99.90;;;;;;2693692;53;20058;-32
2021/12/08 03:46:16;;;;;;;2.83;1.47;;;-2.80;99.90;;;;;;2688942;53;20678;-32
2021/12/08 03:48:47;;;;;;;2.47;1.03;;;-2.80;99.90;;;;;;2687019;53;20070;-34
2021/12/08 03:51:16;;;;;;;4.13;1.03;;;-2.70;99.90;;;;;;2682276;53;20086;-35
2021/12/08 03:53:43;;;;;;;2.20;1.30;;;-2.80;99.90;;;;;;2688879;53;20074;-35
2021/12/08 03:56:10;;;;;;;6.67;1.80;;;-2.80;99.90;;;;;;2692351;53;20144;-32
2021/12/08 03:58:38;;;;;;;3.47;0.93;;;-2.70;99.90;;;;;;2687342;53;20069;-32
2021/12/08 04:01:06;;;;;;;4.23;1.37;;;-2.60;99.90;;;;;;2687448;53;20081;-34
2021/12/08 04:03:33;;;;;;;2.33;1.10;;;-2.60;99.90;;;;;;2687346;53;20100;-33
2021/12/08 04:06:06;;;;;;;8.17;1.70;;;-2.60;99.90;;;;;;2687462;53;20128;-33
2021/12/08 04:08:45;;;;;;;2.73;1.07;;;-2.60;99.90;;;;;;2687392;53;20407;-34
2021/12/08 04:11:12;;;;;;;3.13;1.13;;;-2.50;99.80;;;;;;2682769;53;20069;-35
2021/12/08 04:13:48;;;;;;;1.10;0.60;;;-2.50;99.80;;;;;;2687571;53;20070;-35
2021/12/08 04:16:25;;;;;;;2.23;1.13;;;-2.40;99.80;;;;;;2678347;53;20070;-35
2021/12/08 04:18:53;;;;;;;1.30;0.60;;;-2.30;99.80;;;;;;2682701;53;20175;-36
2021/12/08 04:21:20;;;;;;;1.57;0.60;;;-2.30;99.70;;;;;;2676490;53;20071;-33
2021/12/08 04:23:47;;;;;;;2.70;1.10;;;-2.10;99.50;;;;;;2671899;53;20066;-34
2021/12/08 04:26:27;;;;;;;4.23;0.77;;;-2.20;99.30;;;;;;2676532;53;20198;-33
2021/12/08 04:28:58;;;;;;;2.90;1.63;;;-2.20;99.40;;;;;;2681345;53;20201;-33
2021/12/08 04:31:30;;;;;;;2.70;0.97;;;-2.10;99.30;;;;;;2676295;53;20059;-32
2021/12/08 04:34:01;;;;;;;2.70;2.20;;;-2.10;99.10;;;;;;2676560;53;20069;-35
2021/12/08 04:36:39;;;;;;;3.00;1.23;;;-2.10;99.00;;;;;;2671780;53;20090;-33
2021/12/08 04:39:12;;;;;;;1.23;0.67;;;-2.10;99.00;;;;;;2676074;53;20071;-32
2021/12/08 04:41:45;;;;;;;2.93;1.00;;;-2.00;99.00;;;;;;2671704;53;21082;-44
2021/12/08 04:47:04;;;;;;;4.10;1.13;;;-2.00;99.00;;;;;;2677070;53;20082;-33
2021/12/08 05:03:51;;;;;;;3.03;1.43;;;-2.00;99.20;;;;;;2686277;53;20062;-33
2021/12/08 05:09:22;;;;;;;2.33;0.93;;;-1.90;99.40;;;;;;2693021;53;20068;-32
2021/12/08 05:11:58;;;;;;;0.97;0.50;;;-1.90;99.40;;;;;;2692752;53;20453;-42
2021/12/08 05:14:29;;;;;;;4.47;1.80;;;-1.90;99.00;;;;;;2688296;53;20062;-32
2021/12/08 05:17:06;;;;;;;2.90;1.70;;;-1.90;99.00;;;;;;2688309;53;20132;-33
2021/12/08 05:19:34;;;;;;;2.13;0.80;;;-1.80;99.10;;;;;;2691072;53;20639;-36
2021/12/08 05:22:17;;;;;;;2.43;0.93;;;-1.80;99.10;;;;;;2681908;53;20062;-37
2021/12/08 05:24:47;;;;;;;2.03;0.83;;;-1.80;99.20;;;;;;2681771;53;20062;-35
2021/12/08 05:27:25;;;;;;;5.70;2.17;;;-1.80;98.90;;;;;;2681942;53;20185;-34
2021/12/08 05:30:16;;;;;;;5.10;1.63;;;-1.80;98.70;;;;;;2681712;53;20078;-41
2021/12/08 05:32:44;;;;;;;3.33;1.87;;;-1.90;98.60;;;;;;2681819;53;20070;-34
2021/12/08 05:35:12;;;;;;;1.00;0.77;;;-2.00;98.30;;;;;;2681673;53;20066;-34
2021/12/08 05:37:40;;;;;;;3.10;1.20;;;-1.90;98.70;;;;;;2681568;53;20129;-41
2021/12/08 05:40:15;;;;;;;4.07;2.60;;;-1.90;98.90;;;;;;2681808;53;20062;-35
2021/12/08 05:42:42;;;;;;;2.30;0.88;;;-1.90;98.60;;;;;;2681697;53;20062;-34
2021/12/08 05:45:14;;;;;;;2.27;1.00;;;-1.90;98.40;;;;;;2681831;53;20542;-34
2021/12/08 05:47:41;;;;;;;1.47;0.73;;;-1.90;98.40;;;;;;2681700;53;20065;-35
2021/12/08 05:50:09;;;;;;;4.17;1.60;;;-1.90;98.20;;;;;;2669118;53;20514;-35
2021/12/08 05:52:36;;;;;;;3.37;1.50;;;-1.80;98.30;;;;;;2669326;53;20074;-36
2021/12/08 05:55:06;;;;;;;1.10;0.60;;;-1.80;98.20;;;;;;2669415;53;20082;-37
2021/12/08 05:57:37;;;;;;;2.77;1.13;;;-1.80;98.30;;;;;;2673962;53;20076;-50
2021/12/08 06:00:15;;;;;;;5.57;2.03;;;-1.70;98.30;;;;;;2681370;53;20108;-35
2021/12/08 06:02:43;;;;;;;4.07;1.53;;;-1.70;98.40;;;;;;2681650;53;20066;-36
2021/12/08 06:05:10;;;;;;;3.37;1.93;;;-1.70;98.30;;;;;;2691329;53;20062;-35
2021/12/08 06:07:38;;;;;;;2.50;1.10;;;-1.60;98.40;;;;;;2686417;53;20089;-35
2021/12/08 06:10:11;;;;;;;6.20;1.40;;;-1.70;98.20;;;;;;2674876;53;20471;-35
2021/12/08 06:12:38;;;;;;;3.93;1.83;;;-1.70;98.40;;;;;;2675258;53;20063;-33
2021/12/08 06:15:05;;;;;;;3.97;1.70;;;-1.70;98.50;;;;;;2674806;53;20082;-43
2021/12/08 06:17:32;;;;;;;3.80;1.73;;;-1.70;98.80;;;;;;2675164;53;20070;-35
2021/12/08 06:19:59;;;;;;;5.07;2.27;;;-1.70;98.70;;;;;;2670834;53;20067;-34
2021/12/08 06:22:27;;;;;;;3.33;1.87;;;-1.60;98.80;;;;;;2687059;53;20061;-34
2021/12/08 06:24:54;;;;;;;4.30;1.70;;;-1.60;98.70;;;;;;2687209;53;20077;-34
2021/12/08 06:27:21;;;;;;;4.53;1.80;;;-1.60;98.90;;;;;;2682583;53;20062;-34
2021/12/08 06:29:48;;;;;;;4.30;1.70;;;-1.60;99.10;;;;;;2682377;53;20065;-34
2021/12/08 06:32:16;;;;;;;2.00;1.60;;;-1.50;99.20;;;;;;2691758;53;20085;-36
2021/12/08 06:34:49;;;;;;;3.10;1.70;;;-1.40;99.20;;;;;;2682447;53;20096;-35
2021/12/08 06:37:22;;;;;;;3.70;1.83;;;-1.40;99.10;;;;;;2682479;53;20108;-37
2021/12/08 06:40:13;;;;;;;5.03;1.87;;;-1.40;99.10;;;;;;2682863;53;20222;-35
2021/12/08 06:42:42;;;;;;;3.87;1.83;;;-1.40;99.20;;;;;;2698092;53;20541;-36
2021/12/08 06:45:14;;;;;;;8.60;2.53;;;-1.40;99.20;;;;;;2698112;53;20065;-38
2021/12/08 06:47:42;;;;;;;3.20;2.10;;;-1.30;99.20;;;;;;2693777;53;20522;-35
2021/12/08 06:50:18;;;;;;;4.17;1.37;;;-1.30;99.20;;;;;;2681859;53;20062;-36
2021/12/08 06:52:45;;;;;;;8.27;2.17;;;-1.20;99.20;;;;;;2686883;53;20629;-36
2021/12/08 06:55:19;;;;;;;5.40;1.93;;;-1.20;99.20;;;;;;2691438;53;20117;-38
2021/12/08 06:57:56;;;;;;;5.95;2.15;;;-1.20;99.40;;;;;;2686618;53;20112;-33
2021/12/08 07:04:06;;;;;;;5.47;2.27;;;-1.10;99.50;;;;;;2675621;53;20101;-38
2021/12/08 07:09:04;;;;;;;5.80;2.53;;;-1.10;99.60;;;;;;2680385;53;20170;-36
2021/12/08 07:11:31;;;;;;;5.17;2.20;;;-1.10;99.70;;;;;;2676348;53;20090;-33
2021/12/08 07:13:58;;;;;;;2.70;1.17;;;-1.00;99.70;;;;;;2681357;53;20070;-34
2021/12/08 07:16:38;;;;;;;4.00;1.97;;;-1.00;99.70;;;;;;2676601;53;20082;-35
2021/12/08 07:19:34;;;;;;;4.37;1.80;;;-1.00;99.90;;;;;;2676591;53;20125;-35
2021/12/08 07:22:05;;;;;;;6.63;2.45;;;-0.90;99.90;;;;;;2672001;53;20590;-36
2021/12/08 07:24:41;;;;;;;4.77;2.10;;;-0.90;99.90;;;;;;2677020;53;20074;-35
2021/12/08 07:27:17;;;;;;;4.60;1.60;;;-0.90;99.90;;;;;;2671913;53;20125;-51
2021/12/08 07:29:45;;;;;;;5.17;1.90;;;-0.80;99.90;;;;;;2670781;53;20074;-36
2021/12/08 07:32:31;;;;;;;12.43;2.83;;;-0.90;99.90;;;;;;2666151;53;20181;-35
2021/12/08 07:35:03;;;;;;;5.57;2.20;;;-0.80;99.90;;;;;;2666255;53;20137;-34
2021/12/08 07:37:32;;;;;;;5.40;1.57;;;-0.80;99.90;;;;;;2666432;53;20109;-35
2021/12/08 07:40:23;;;;;;;5.83;1.50;;;-0.80;99.90;;;;;;2669448;53;20326;-35
2021/12/08 07:43:04;;;;;;;4.97;2.10;;;-0.70;99.90;;;;;;2676252;53;20543;-35
2021/12/08 07:46:03;;;;;;;8.23;2.23;;;-0.70;99.90;;;;;;2676327;53;20529;-36
2021/12/08 07:49:02;;;;;;;6.07;2.53;;;-0.70;99.90;;;;;;2686500;53;20054;-34
2021/12/08 07:51:36;;;;;;;5.93;2.87;;;-0.60;99.90;;;;;;2682745;53;20079;-33
2021/12/08 07:54:04;;;;;;;6.77;2.87;;;-0.60;99.90;;;;;;2687898;53;20077;-36
2021/12/08 07:56:32;;;;;;;5.23;1.70;;;-0.60;99.90;;;;;;2687902;53;20530;-33
2021/12/08 07:59:02;;;;;;;9.80;2.17;;;-0.50;99.90;;;;;;2687714;53;20058;-34
2021/12/08 08:01:34;;;;;;;4.63;2.07;;;-0.50;99.90;;;;;;2701304;52;20069;-33
2021/12/08 08:04:03;;;;;;;4.03;2.23;;;-0.50;99.90;;;;;;2698989;53;20075;-33
2021/12/08 08:06:34;;;;;;;5.97;2.77;;;-0.40;99.90;;;;;;2698768;52;20073;-35
2021/12/08 08:09:04;;;;;;;5.27;2.30;;;-0.40;99.90;;;;;;2699002;53;20057;-33
2021/12/08 08:11:36;;;;;;;6.53;1.97;;;-0.40;99.90;;;;;;2698761;53;20598;-34
2021/12/08 08:14:03;;;;;;;6.73;2.00;;;-0.40;99.90;;;;;;2698971;53;20123;-33
2021/12/08 08:16:33;;;;;;;3.40;1.50;;;-0.40;99.90;;;;;;2698755;53;20066;-34
2021/12/08 08:19:09;;;;;;;4.07;1.97;;;-0.40;99.90;;;;;;2694015;53;20065;-34
2021/12/08 08:21:41;;;;;;;3.10;1.30;;;-0.30;99.90;;;;;;2698925;52;20065;-33
2021/12/08 08:24:08;;;;;;;4.20;1.90;;;-0.30;99.90;;;;;;2698595;53;20108;-36
2021/12/08 08:26:36;;;;;;;6.03;2.27;;;-0.20;99.90;;;;;;2698729;53;20450;-33
2021/12/08 08:29:05;;;;;;;3.57;1.30;;;-0.30;99.90;;;;;;2689345;53;20081;-34
2021/12/08 08:31:41;;;;;;;5.33;1.73;;;-0.20;99.90;;;;;;2698490;53;20128;-34
2021/12/08 08:34:11;;;;;;;6.27;1.93;;;-0.20;99.90;;;;;;2698745;53;20069;-34
2021/12/08 08:36:43;;;;;;;6.37;2.40;;;-0.20;99.90;;;;;;2694293;53;20065;-35
2021/12/08 08:39:27;;;;;;;11.50;2.00;;;-0.10;99.90;;;;;;2698480;53;20060;-33
2021/12/08 08:42:13;;;;;;;3.37;1.47;;;-0.20;99.90;;;;;;2698780;53;20074;-33
2021/12/08 08:44:58;;;;;;;5.03;1.97;;;-0.10;99.90;;;;;;2698732;53;20065;-35
2021/12/08 08:47:58;;;;;;;6.72;1.65;;;-0.10;99.90;;;;;;2696036;53;20065;-39
2021/12/08 08:50:40;;;;;;;8.53;3.20;;;-0.10;99.90;;;;;;2681892;53;20109;-35
2021/12/08 08:53:08;;;;;;;6.50;2.23;;;-0.20;99.90;;;;;;2681941;53;20084;-33
2021/12/08 08:55:52;;;;;;;4.03;1.70;;;-0.20;99.90;;;;;;2682018;53;20664;-35
2021/12/08 08:58:22;;;;;;;8.33;2.47;;;-0.20;99.90;;;;;;2681656;53;20128;-34
2021/12/08 09:01:03;;;;;;;3.57;1.73;;;-0.10;99.90;;;;;;2681826;53;20521;-33
2021/12/08 09:03:34;;;;;;;5.47;2.17;;;0.00;99.90;;;;;;2681839;53;20089;-33
2021/12/08 09:06:09;;;;;;;5.03;2.20;;;0.00;99.90;;;;;;2681815;53;20058;-35
2021/12/08 09:08:38;;;;;;;7.83;1.70;;;0.10;99.90;;;;;;2681872;53;20133;-32
2021/12/08 09:11:17;;;;;;;5.77;2.57;;;0.10;99.90;;;;;;2681554;53;20212;-36
2021/12/08 09:13:54;;;;;;;6.23;2.90;;;0.10;99.90;;;;;;2681844;53;20070;-34
2021/12/08 09:16:46;;;;;;;6.27;1.57;;;0.10;99.90;;;;;;2682074;53;20128;-38
2021/12/08 09:19:19;;;;;;;4.83;1.97;;;0.10;99.90;;;;;;2681765;53;20069;-37
2021/12/08 09:21:59;;;;;;;5.57;1.70;;;0.20;99.90;;;;;;2675164;53;20079;-33
2021/12/08 09:24:44;;;;;;;4.37;2.67;;;0.20;99.90;;;;;;2665947;53;20066;-33
2021/12/08 09:27:11;;;;;;;5.15;2.60;;;0.20;99.90;;;;;;2673550;53;20136;-33
2021/12/08 09:30:01;;;;;;;4.97;1.77;;;0.30;99.90;;;;;;2686263;53;20067;-35
2021/12/08 09:32:38;;;;;;;5.63;2.80;;;0.30;99.90;;;;;;2686316;53;20066;-33
2021/12/08 09:35:14;;;;;;;6.20;2.53;;;0.30;99.90;;;;;;2681936;53;20058;-35
2021/12/08 09:37:50;;;;;;;7.40;2.77;;;0.30;99.90;;;;;;2686474;53;20131;-35
2021/12/08 09:40:33;;;;;;;4.67;1.93;;;0.40;99.90;;;;;;2681662;53;20119;-36
2021/12/08 09:44:07;;;;;;;8.00;2.43;;;0.40;99.90;;;;;;2072750;68;20368;-35
2021/12/08 09:46:40;;;;;;;9.17;2.60;;;0.50;99.90;;;;;;2226416;64;20468;-34
2021/12/08 09:49:09;;;;;;;4.30;2.20;;;0.50;99.90;;;;;;2223254;64;20096;-35
2021/12/08 09:51:36;;;;;;;8.90;3.53;;;0.50;99.90;;;;;;2223175;64;20084;-37
2021/12/08 09:54:02;;;;;;;7.40;3.27;;;0.60;99.90;;;;;;2223191;64;20189;-36
2021/12/08 09:56:30;;;;;;;4.93;2.63;;;0.60;99.90;;;;;;2223149;64;20092;-39
2021/12/08 09:58:56;;;;;;;5.90;2.43;;;0.60;99.90;;;;;;2223102;64;20084;-38
2021/12/08 10:01:23;;;;;;;7.73;2.10;;;0.60;99.90;;;;;;2223041;64;20089;-36
2021/12/08 10:03:51;;;;;;;4.57;1.47;;;0.70;99.90;;;;;;2217867;64;20173;-32
2021/12/08 10:06:19;;;;;;;7.40;3.03;;;0.70;99.90;;;;;;2214928;64;20173;-39
2021/12/08 10:08:45;;;;;;;9.87;2.37;;;0.70;99.90;;;;;;2210955;64;20180;-32
2021/12/08 10:11:12;;;;;;;6.97;2.77;;;0.70;99.90;;;;;;2211061;64;20097;-44
2021/12/08 10:13:39;;;;;;;9.30;2.00;;;0.70;99.90;;;;;;2214160;64;20136;-35
2021/12/08 10:16:06;;;;;;;8.20;3.07;;;0.70;99.90;;;;;;2211082;64;20092;-34
2021/12/08 10:18:33;;;;;;;5.63;2.73;;;0.70;99.90;;;;;;2203235;64;20106;-37
2021/12/08 10:21:00;;;;;;;5.87;1.57;;;0.70;99.90;;;;;;2200064;64;20588;-33
2021/12/08 10:23:29;;;;;;;7.63;2.67;;;0.80;99.90;;;;;;2203153;64;20563;-32
2021/12/08 10:25:58;;;;;;;6.00;2.90;;;0.80;99.90;;;;;;2202671;65;20603;-34
2021/12/08 10:28:36;;;;;;;6.27;3.23;;;0.80;99.90;;;;;;2199479;65;20086;-36
2021/12/08 10:31:14;;;;;;;5.60;2.17;;;0.80;99.90;;;;;;2202711;65;20102;-36
2021/12/08 10:36:45;;;;;;;5.40;2.77;;;0.90;99.90;;;;;;2199386;65;20106;-35
2021/12/08 10:39:19;;;;;;;6.17;2.80;;;0.90;99.90;;;;;;2203427;64;20094;-33
2021/12/08 10:42:03;;;;;;;5.43;1.98;;;0.90;99.90;;;;;;2207993;64;20599;-33
2021/12/08 10:44:41;;;;;;;6.80;3.50;;;1.00;99.90;;;;;;2211152;64;20097;-33
2021/12/08 10:47:08;;;;;;;6.30;2.93;;;1.00;99.90;;;;;;2210820;64;20081;-35
2021/12/08 10:55:01;;;;;;;6.97;2.03;;;1.00;99.90;;;;;;2208721;64;20145;-38
2021/12/08 10:57:31;;;;;;;6.50;1.87;;;1.00;99.90;;;;;;2217295;64;20085;-36
2021/12/08 11:00:04;;;;;;;5.50;2.00;;;1.00;99.90;;;;;;2223385;64;20080;-33
2021/12/08 11:02:49;;;;;;;2.47;1.33;;;1.00;99.90;;;;;;2220066;64;20108;-36
2021/12/08 11:05:25;;;;;;;5.57;2.65;;;1.10;99.90;;;;;;2220388;64;20182;-34
2021/12/08 11:08:05;;;;;;;6.77;2.30;;;1.10;99.90;;;;;;2220178;64;20077;-36
2021/12/08 11:10:34;;;;;;;5.20;2.07;;;1.10;99.90;;;;;;2220132;64;20100;-36
2021/12/08 11:13:01;;;;;;;5.40;1.63;;;1.10;99.90;;;;;;2220258;64;20089;-36
2021/12/08 11:15:28;;;;;;;5.83;2.73;;;1.10;99.90;;;;;;2223206;64;20532;-33
2021/12/08 11:18:13;;;;;;;6.43;2.17;;;1.10;99.90;;;;;;2220082;64;20449;-34
2021/12/08 11:20:44;;;;;;;4.70;1.65;;;1.10;99.90;;;;;;2223457;64;20107;-38
2021/12/08 11:23:14;;;;;;;5.73;2.30;;;1.10;99.90;;;;;;2223324;64;20093;-34
2021/12/08 11:25:45;;;;;;;6.50;2.03;;;1.20;99.90;;;;;;2215233;64;20116;-35
2021/12/08 11:28:24;;;;;;;7.93;2.80;;;1.20;99.90;;;;;;2212214;64;20089;-36
2021/12/08 11:30:51;;;;;;;3.90;1.67;;;1.20;99.90;;;;;;2212245;64;20081;-39
2021/12/08 11:33:21;;;;;;;3.77;1.93;;;1.20;99.90;;;;;;2212173;64;20195;-39
2021/12/08 11:35:48;;;;;;;6.90;2.20;;;1.20;99.90;;;;;;2212370;64;20192;-34
2021/12/08 11:38:24;;;;;;;7.53;2.73;;;1.20;99.90;;;;;;2212182;64;20166;-34
2021/12/08 11:40:51;;;;;;;3.03;1.90;;;1.20;99.90;;;;;;2212285;64;20073;-33
2021/12/08 11:43:17;;;;;;;3.60;1.77;;;1.20;99.90;;;;;;2208893;64;20149;-36
2021/12/08 11:45:44;;;;;;;4.17;2.43;;;1.30;99.90;;;;;;2208801;64;20111;-35
2021/12/08 11:48:22;;;;;;;9.93;3.60;;;1.20;99.90;;;;;;2212138;64;20569;-35
2021/12/08 11:50:48;;;;;;;7.60;2.57;;;1.30;99.90;;;;;;2211431;64;20611;-38
2021/12/08 11:53:21;;;;;;;4.97;1.93;;;1.30;99.90;;;;;;2208288;64;20090;-45
2021/12/08 11:55:48;;;;;;;7.03;2.97;;;1.30;99.90;;;;;;2208331;64;20104;-38
2021/12/08 11:58:14;;;;;;;7.00;2.93;;;1.30;99.90;;;;;;2208266;64;20531;-34
2021/12/08 12:00:45;;;;;;;11.43;4.67;;;1.30;99.90;;;;;;2211513;64;20137;-35
2021/12/08 12:03:14;;;;;;;6.03;2.83;;;1.30;99.90;;;;;;2211585;64;20166;-36
2021/12/08 12:05:42;;;;;;;8.33;2.23;;;1.30;99.90;;;;;;2215914;64;20513;-35
2021/12/08 12:08:14;;;;;;;9.10;2.67;;;1.30;99.90;;;;;;2216237;64;20100;-34
2021/12/08 12:10:45;;;;;;;3.27;1.30;;;1.40;99.90;;;;;;2216359;64;20089;-36
2021/12/08 12:13:12;;;;;;;4.47;2.00;;;1.40;99.90;;;;;;2215907;64;20442;-39
2021/12/08 12:15:47;;;;;;;9.33;1.90;;;1.40;99.90;;;;;;2216248;64;20078;-36
2021/12/08 12:18:19;;;;;;;9.15;3.22;;;1.40;99.90;;;;;;2213161;64;20108;-35
2021/12/08 12:21:05;;;;;;;5.53;1.83;;;1.40;99.90;;;;;;2213172;64;20097;-34
2021/12/08 12:23:56;;;;;;;2.10;1.20;;;1.40;99.90;;;;;;2212918;64;20101;-34
2021/12/08 12:26:41;;;;;;;4.73;1.83;;;1.40;99.90;;;;;;2216235;64;20549;-40
2021/12/08 12:29:19;;;;;;;3.35;1.83;;;1.40;99.90;;;;;;2216257;64;20088;-35
2021/12/08 12:31:54;;;;;;;2.90;1.27;;;1.40;99.90;;;;;;2215920;64;20634;-38
2021/12/08 12:34:27;;;;;;;3.38;2.10;;;1.40;99.90;;;;;;2212925;64;20186;-35
2021/12/08 12:36:54;;;;;;;6.07;2.07;;;1.40;99.90;;;;;;2212935;64;20588;-36
2021/12/08 12:39:23;;;;;;;5.03;2.00;;;1.40;99.90;;;;;;2212931;64;20081;-33
2021/12/08 12:42:05;;;;;;;4.47;1.67;;;1.50;99.90;;;;;;2215879;64;20613;-36
2021/12/08 12:44:32;;;;;;;4.93;1.30;;;1.40;99.90;;;;;;2216132;64;20085;-35
2021/12/08 12:47:11;;;;;;;4.73;1.37;;;1.40;99.90;;;;;;2217150;64;20103;-35
2021/12/08 12:49:44;;;;;;;3.73;1.20;;;1.50;99.90;;;;;;2220004;64;20076;-35
2021/12/08 12:52:12;;;;;;;5.40;1.60;;;1.50;99.90;;;;;;2219859;64;20127;-32
2021/12/08 12:54:39;;;;;;;8.10;3.00;;;1.50;99.90;;;;;;2220045;64;20100;-34
2021/12/08 12:57:07;;;;;;;4.10;1.63;;;1.50;99.90;;;;;;2223195;64;20104;-35
2021/12/08 12:59:43;;;;;;;10.73;2.47;;;1.60;99.90;;;;;;2223041;64;20100;-34
2021/12/08 13:02:29;;;;;;;8.77;1.40;;;1.60;99.90;;;;;;2223185;64;20092;-34
2021/12/08 13:05:10;;;;;;;7.97;1.93;;;1.60;99.90;;;;;;2220003;64;20092;-33
2021/12/08 13:07:42;;;;;;;3.40;1.20;;;1.50;99.90;;;;;;2219933;64;20076;-32
2021/12/08 13:10:13;;;;;;;6.00;2.70;;;1.60;99.90;;;;;;2223121;64;20480;-33
2021/12/08 13:12:44;;;;;;;5.20;2.13;;;1.60;99.90;;;;;;2219951;64;20104;-34
2021/12/08 13:15:21;;;;;;;7.73;2.17;;;1.60;99.90;;;;;;2220018;64;20092;-35
2021/12/08 13:18:04;;;;;;;7.37;2.70;;;1.60;99.90;;;;;;2214760;64;20101;-34
2021/12/08 13:20:37;;;;;;;6.90;3.13;;;1.60;99.90;;;;;;2211791;64;20160;-31
2021/12/08 13:23:08;;;;;;;5.77;1.60;;;1.50;99.90;;;;;;2211645;64;20659;-31
2021/12/08 13:25:53;;;;;;;6.77;2.00;;;1.60;99.90;;;;;;2211697;64;20127;-42
2021/12/08 13:28:27;;;;;;;4.60;1.93;;;1.60;99.90;;;;;;2211769;64;20097;-36
2021/12/08 13:31:05;;;;;;;6.40;2.05;;;1.60;99.90;;;;;;2211973;64;20093;-33
2021/12/08 13:33:33;;;;;;;4.93;2.80;;;1.60;99.90;;;;;;2211794;64;20756;-34
2021/12/08 13:36:30;;;;;;;5.70;2.00;;;1.60;99.90;;;;;;2211829;64;20080;-34
2021/12/08 13:38:57;;;;;;;2.57;0.90;;;1.50;99.90;;;;;;2211679;64;20600;-33
2021/12/08 13:41:28;;;;;;;3.83;1.30;;;1.50;99.90;;;;;;2211829;64;20077;-32
2021/12/08 13:43:56;;;;;;;4.33;1.77;;;1.50;99.90;;;;;;2211568;64;20669;-32
2021/12/08 13:46:45;;;;;;;7.43;2.67;;;1.50;99.90;;;;;;2208374;64;20089;-32
2021/12/08 13:49:51;;;;;;;7.93;2.80;;;1.50;99.90;;;;;;2212590;64;20108;-32
2021/12/08 13:52:20;;;;;;;6.65;2.22;;;1.50;99.90;;;;;;2200092;65;20083;-32
2021/12/08 13:54:52;;;;;;;5.53;1.63;;;1.50;99.90;;;;;;2200345;65;20105;-34
2021/12/08 13:57:41;;;;;;;10.47;2.43;;;1.50;99.90;;;;;;2200244;65;20086;-32
2021/12/08 14:00:28;;;;;;;5.33;2.37;;;1.50;99.90;;;;;;2200188;65;20154;-34
2021/12/08 14:03:06;;;;;;;6.23;2.47;;;1.50;99.90;;;;;;2203252;65;20124;-33
2021/12/08 14:05:41;;;;;;;2.33;1.10;;;1.50;99.90;;;;;;2203370;65;20090;-33
2021/12/08 14:08:15;;;;;;;;;;;1.50;99.90;;;;;;2200359;65;20082;-33
2021/12/08 14:10:44;;;;;;;6.80;3.43;;;1.50;99.90;;;;;;2200132;65;20104;-34
2021/12/08 14:13:12;;;;;;;8.30;2.40;;;1.50;99.90;;;;;;2200024;65;20745;-32
2021/12/08 14:15:44;;;;;;;5.93;2.10;;;1.50;99.90;;;;;;2200089;65;20125;-33